RYR771U EGBB-EICK
Flight info
| Callsign | RYR771U |
|---|---|
| Flight time | 0h 47m |
| Altitude | 34000 |
| Route | BRUMI N92 BUCGO L9 TIGWE DCT FELCA DCT OFSOX DCT BANBA DCT VAPAL VAPAL1R |
| Aircraft | B738/M-SDE2E3FGHIRWXY/LB1 |
Departure
| Time | 2026-04-28 21:26 |
|---|---|
| Airport | Birmingham Airport (EGBB) |
Arrival
| Time | 2026-04-28 22:14 |
|---|---|
| Airport | Cork International Airport (EICK) |
| Time | Latitude | Longitude | Altitude | Speed | Heading |
|---|---|---|---|---|---|
| 2026-04-28 21:09 | 52.45263 | -1.73838 | 322 ft | 0 kts | 136° |
| 2026-04-28 21:17 | 52.45276 | -1.73860 | 319 ft | 4 kts | 136° |
| 2026-04-28 21:17 | 52.45295 | -1.73889 | 320 ft | 2 kts | 136° |
| 2026-04-28 21:17 | 52.45313 | -1.73912 | 319 ft | 4 kts | 163° |
| 2026-04-28 21:18 | 52.45336 | -1.73911 | 319 ft | 4 kts | 216° |
| 2026-04-28 21:18 | 52.45349 | -1.73890 | 321 ft | 0 kts | 236° |
| 2026-04-28 21:18 | 52.45341 | -1.73911 | 320 ft | 0 kts | 236° |
| 2026-04-28 21:22 | 52.45339 | -1.73915 | 319 ft | 2 kts | 234° |
| 2026-04-28 21:22 | 52.45321 | -1.73948 | 321 ft | 5 kts | 220° |
| 2026-04-28 21:22 | 52.45285 | -1.73967 | 322 ft | 6 kts | 176° |
| 2026-04-28 21:22 | 52.45260 | -1.73949 | 321 ft | 6 kts | 150° |
| 2026-04-28 21:23 | 52.45199 | -1.73882 | 322 ft | 9 kts | 148° |
| 2026-04-28 21:23 | 52.45149 | -1.73829 | 322 ft | 8 kts | 144° |
| 2026-04-28 21:23 | 52.45100 | -1.73780 | 322 ft | 8 kts | 159° |
| 2026-04-28 21:23 | 52.45050 | -1.73807 | 322 ft | 8 kts | 226° |
| 2026-04-28 21:24 | 52.45017 | -1.73878 | 322 ft | 8 kts | 234° |
| 2026-04-28 21:24 | 52.44992 | -1.73954 | 323 ft | 8 kts | 251° |
| 2026-04-28 21:24 | 52.44985 | -1.73994 | 323 ft | 8 kts | 256° |
| 2026-04-28 21:24 | 52.44984 | -1.74005 | 323 ft | 8 kts | 259° |
| 2026-04-28 21:25 | 52.44972 | -1.74087 | 326 ft | 7 kts | 255° |
| 2026-04-28 21:25 | 52.44959 | -1.74166 | 326 ft | 7 kts | 255° |
| 2026-04-28 21:25 | 52.44944 | -1.74252 | 324 ft | 9 kts | 256° |
| 2026-04-28 21:25 | 52.44967 | -1.74337 | 324 ft | 8 kts | 321° |
| 2026-04-28 21:26 | 52.45009 | -1.74384 | 328 ft | 16 kts | 326° |
| 2026-04-28 21:26 | 52.45371 | -1.74785 | 323 ft | 109 kts | 325° |
| 2026-04-28 21:26 | 52.46212 | -1.75655 | 646 ft | 157 kts | 334° |
| 2026-04-28 21:26 | 52.47196 | -1.76702 | 1500 ft | 184 kts | 335° |
| 2026-04-28 21:27 | 52.48330 | -1.77952 | 2338 ft | 206 kts | 334° |
| 2026-04-28 21:27 | 52.49559 | -1.79372 | 2749 ft | 228 kts | 332° |
| 2026-04-28 21:27 | 52.50691 | -1.81252 | 3395 ft | 240 kts | 309° |
| 2026-04-28 21:27 | 52.51389 | -1.83805 | 4012 ft | 250 kts | 290° |
| 2026-04-28 21:28 | 52.51587 | -1.86669 | 4617 ft | 260 kts | 260° |
| 2026-04-28 21:28 | 52.51028 | -1.89521 | 5276 ft | 267 kts | 237° |
| 2026-04-28 21:28 | 52.49729 | -1.91667 | 5958 ft | 269 kts | 206° |
| 2026-04-28 21:28 | 52.48023 | -1.93044 | 6559 ft | 280 kts | 199° |
| 2026-04-28 21:29 | 52.46214 | -1.94343 | 7075 ft | 286 kts | 199° |
| 2026-04-28 21:29 | 52.44388 | -1.95633 | 7552 ft | 286 kts | 199° |
| 2026-04-28 21:29 | 52.42568 | -1.96940 | 8053 ft | 287 kts | 199° |
| 2026-04-28 21:29 | 52.40740 | -1.98270 | 8557 ft | 288 kts | 199° |
| 2026-04-28 21:30 | 52.38910 | -1.99609 | 9070 ft | 289 kts | 200° |
| 2026-04-28 21:30 | 52.37038 | -2.00795 | 9585 ft | 287 kts | 188° |
| 2026-04-28 21:30 | 52.35080 | -2.01317 | 10115 ft | 286 kts | 182° |
| 2026-04-28 21:30 | 52.33099 | -2.01729 | 10625 ft | 288 kts | 182° |
| 2026-04-28 21:31 | 52.31102 | -2.02151 | 11115 ft | 291 kts | 182° |
| 2026-04-28 21:31 | 52.29081 | -2.02596 | 11617 ft | 294 kts | 182° |
| 2026-04-28 21:31 | 52.27006 | -2.03064 | 11917 ft | 312 kts | 182° |
| 2026-04-28 21:31 | 52.24782 | -2.03574 | 12214 ft | 332 kts | 182° |
| 2026-04-28 21:32 | 52.22462 | -2.04124 | 12610 ft | 340 kts | 183° |
| 2026-04-28 21:32 | 52.20124 | -2.04686 | 13128 ft | 339 kts | 182° |
| 2026-04-28 21:32 | 52.17788 | -2.05244 | 13653 ft | 341 kts | 182° |
| 2026-04-28 21:32 | 52.15436 | -2.06024 | 14161 ft | 351 kts | 193° |
| 2026-04-28 21:33 | 52.13195 | -2.07747 | 14651 ft | 362 kts | 207° |
| 2026-04-28 21:33 | 52.11204 | -2.10339 | 15145 ft | 370 kts | 218° |
| 2026-04-28 21:33 | 52.09315 | -2.13208 | 15643 ft | 373 kts | 219° |
| 2026-04-28 21:33 | 52.07427 | -2.16131 | 16148 ft | 375 kts | 219° |
| 2026-04-28 21:34 | 52.05547 | -2.19021 | 16644 ft | 378 kts | 218° |
| 2026-04-28 21:34 | 52.03609 | -2.21962 | 17174 ft | 385 kts | 218° |
| 2026-04-28 21:34 | 52.01621 | -2.24949 | 17737 ft | 392 kts | 217° |
| 2026-04-28 21:34 | 51.99604 | -2.27963 | 18276 ft | 396 kts | 217° |
| 2026-04-28 21:35 | 51.97574 | -2.30985 | 18795 ft | 398 kts | 217° |
| 2026-04-28 21:35 | 51.95527 | -2.34044 | 19257 ft | 401 kts | 217° |
| 2026-04-28 21:35 | 51.93477 | -2.37120 | 19736 ft | 403 kts | 217° |
| 2026-04-28 21:35 | 51.91411 | -2.40222 | 20224 ft | 406 kts | 217° |
| 2026-04-28 21:36 | 51.89323 | -2.43352 | 20731 ft | 411 kts | 217° |
| 2026-04-28 21:36 | 51.87212 | -2.46512 | 21220 ft | 417 kts | 217° |
| 2026-04-28 21:36 | 51.85067 | -2.49719 | 21750 ft | 422 kts | 217° |
| 2026-04-28 21:36 | 51.83631 | -2.51862 | 22087 ft | 425 kts | 217° |
| 2026-04-28 21:37 | 51.81438 | -2.55100 | 22619 ft | 428 kts | 215° |
| 2026-04-28 21:37 | 51.79268 | -2.58433 | 23155 ft | 438 kts | 227° |
| 2026-04-28 21:37 | 51.77768 | -2.62761 | 23721 ft | 448 kts | 250° |
| 2026-04-28 21:37 | 51.77171 | -2.67696 | 24226 ft | 450 kts | 271° |
| 2026-04-28 21:38 | 51.77380 | -2.72702 | 24724 ft | 448 kts | 279° |
| 2026-04-28 21:38 | 51.77739 | -2.77717 | 25158 ft | 449 kts | 281° |
| 2026-04-28 21:38 | 51.78117 | -2.82729 | 25774 ft | 451 kts | 281° |
| 2026-04-28 21:38 | 51.78483 | -2.87768 | 26259 ft | 452 kts | 280° |
| 2026-04-28 21:39 | 51.78827 | -2.92824 | 26758 ft | 453 kts | 280° |
| 2026-04-28 21:39 | 51.79153 | -2.97894 | 27249 ft | 454 kts | 280° |
| 2026-04-28 21:39 | 51.79469 | -3.02972 | 27770 ft | 454 kts | 280° |
| 2026-04-28 21:39 | 51.79779 | -3.08054 | 28282 ft | 454 kts | 280° |
| 2026-04-28 21:40 | 51.80088 | -3.13137 | 28770 ft | 455 kts | 280° |
| 2026-04-28 21:40 | 51.80399 | -3.18246 | 29155 ft | 458 kts | 280° |
| 2026-04-28 21:40 | 51.80709 | -3.23384 | 29558 ft | 460 kts | 280° |
| 2026-04-28 21:40 | 51.81018 | -3.28544 | 29964 ft | 462 kts | 280° |
| 2026-04-28 21:41 | 51.81325 | -3.33724 | 30383 ft | 464 kts | 280° |
| 2026-04-28 21:41 | 51.81627 | -3.38863 | 30729 ft | 465 kts | 279° |
| 2026-04-28 21:41 | 51.81932 | -3.44062 | 31077 ft | 466 kts | 280° |
| 2026-04-28 21:41 | 51.82235 | -3.49277 | 31438 ft | 466 kts | 280° |
| 2026-04-28 21:42 | 51.82554 | -3.54498 | 31808 ft | 466 kts | 283° |
| 2026-04-28 21:42 | 51.83096 | -3.59638 | 32186 ft | 463 kts | 287° |
| 2026-04-28 21:42 | 51.83755 | -3.64722 | 32574 ft | 461 kts | 288° |
| 2026-04-28 21:42 | 51.84451 | -3.69781 | 32956 ft | 460 kts | 288° |
| 2026-04-28 21:43 | 51.85149 | -3.74829 | 33356 ft | 460 kts | 288° |
| 2026-04-28 21:43 | 51.85833 | -3.79871 | 33757 ft | 459 kts | 288° |
| 2026-04-28 21:43 | 51.86501 | -3.84919 | 34150 ft | 458 kts | 287° |
| 2026-04-28 21:43 | 51.87157 | -3.89966 | 34345 ft | 462 kts | 288° |
| 2026-04-28 21:44 | 51.88481 | -4.00304 | 34340 ft | 476 kts | 287° |
| 2026-04-28 21:44 | 51.89823 | -4.10956 | 34342 ft | 489 kts | 287° |
| 2026-04-28 21:45 | 51.91178 | -4.21823 | 34328 ft | 494 kts | 287° |
| 2026-04-28 21:45 | 51.92526 | -4.32733 | 34347 ft | 495 kts | 286° |
| 2026-04-28 21:46 | 51.93854 | -4.43569 | 34302 ft | 484 kts | 287° |
| 2026-04-28 21:46 | 51.95154 | -4.54234 | 34352 ft | 483 kts | 287° |
| 2026-04-28 21:47 | 51.96457 | -4.64954 | 34333 ft | 485 kts | 287° |
| 2026-04-28 21:47 | 51.97753 | -4.75734 | 34338 ft | 488 kts | 287° |
| 2026-04-28 21:48 | 51.99018 | -4.86386 | 34312 ft | 474 kts | 287° |
| 2026-04-28 21:48 | 51.99627 | -4.91573 | 34306 ft | 461 kts | 287° |
| 2026-04-28 21:48 | 52.00217 | -4.96605 | 34313 ft | 447 kts | 287° |
| 2026-04-28 21:49 | 52.01366 | -5.06345 | 34348 ft | 437 kts | 287° |
| 2026-04-28 21:49 | 52.02500 | -5.16061 | 34358 ft | 440 kts | 285° |
| 2026-04-28 21:50 | 52.02588 | -5.26110 | 34361 ft | 451 kts | 267° |
| 2026-04-28 21:50 | 52.01825 | -5.36256 | 34351 ft | 454 kts | 266° |
| 2026-04-28 21:51 | 52.01043 | -5.46417 | 34351 ft | 454 kts | 266° |
| 2026-04-28 21:51 | 52.00299 | -5.56602 | 34343 ft | 454 kts | 267° |
| 2026-04-28 21:52 | 51.99568 | -5.66774 | 34341 ft | 453 kts | 267° |
| 2026-04-28 21:52 | 51.98833 | -5.76908 | 34342 ft | 451 kts | 267° |
| 2026-04-28 21:53 | 51.98461 | -5.81977 | 34240 ft | 453 kts | 266° |
| 2026-04-28 21:53 | 51.98084 | -5.87129 | 33649 ft | 470 kts | 266° |
| 2026-04-28 21:53 | 51.97690 | -5.92501 | 33159 ft | 488 kts | 266° |
| 2026-04-28 21:53 | 51.97280 | -5.97993 | 32633 ft | 490 kts | 266° |
| 2026-04-28 21:54 | 51.96865 | -6.03459 | 32117 ft | 488 kts | 266° |
| 2026-04-28 21:54 | 51.96448 | -6.08910 | 31605 ft | 486 kts | 266° |
| 2026-04-28 21:54 | 51.96034 | -6.14330 | 31106 ft | 483 kts | 266° |
| 2026-04-28 21:54 | 51.95621 | -6.19728 | 30614 ft | 481 kts | 266° |
| 2026-04-28 21:55 | 51.95228 | -6.25023 | 30083 ft | 478 kts | 268° |
| 2026-04-28 21:55 | 51.94938 | -6.30381 | 29528 ft | 476 kts | 270° |
| 2026-04-28 21:55 | 51.94719 | -6.35710 | 28942 ft | 474 kts | 271° |
| 2026-04-28 21:55 | 51.94527 | -6.41029 | 28406 ft | 472 kts | 271° |
| 2026-04-28 21:56 | 51.94336 | -6.46340 | 27757 ft | 473 kts | 270° |
| 2026-04-28 21:56 | 51.94136 | -6.51662 | 27119 ft | 473 kts | 270° |
| 2026-04-28 21:56 | 51.93924 | -6.56988 | 26491 ft | 474 kts | 270° |
| 2026-04-28 21:56 | 51.93701 | -6.62317 | 25883 ft | 474 kts | 269° |
| 2026-04-28 21:57 | 51.93471 | -6.67648 | 25273 ft | 474 kts | 269° |
| 2026-04-28 21:57 | 51.93237 | -6.72969 | 24684 ft | 473 kts | 269° |
| 2026-04-28 21:57 | 51.92999 | -6.78278 | 24099 ft | 469 kts | 269° |
| 2026-04-28 21:57 | 51.92762 | -6.83503 | 23438 ft | 460 kts | 269° |
| 2026-04-28 21:58 | 51.92528 | -6.88614 | 22745 ft | 451 kts | 269° |
| 2026-04-28 21:58 | 51.92296 | -6.93636 | 22081 ft | 443 kts | 269° |
| 2026-04-28 21:58 | 51.92068 | -6.98560 | 21432 ft | 435 kts | 269° |
| 2026-04-28 21:58 | 51.91842 | -7.03418 | 20803 ft | 428 kts | 269° |
| 2026-04-28 21:59 | 51.91618 | -7.08200 | 20187 ft | 422 kts | 268° |
| 2026-04-28 21:59 | 51.91396 | -7.12893 | 19586 ft | 416 kts | 268° |
| 2026-04-28 21:59 | 51.91175 | -7.17534 | 18995 ft | 411 kts | 268° |
| 2026-04-28 22:00 | 51.90736 | -7.26648 | 17707 ft | 401 kts | 268° |
| 2026-04-28 22:00 | 51.90517 | -7.31123 | 17053 ft | 396 kts | 268° |
| 2026-04-28 22:00 | 51.90299 | -7.35546 | 16410 ft | 392 kts | 268° |
| 2026-04-28 22:00 | 51.90083 | -7.39912 | 15785 ft | 389 kts | 268° |
| 2026-04-28 22:01 | 51.89864 | -7.44309 | 15191 ft | 393 kts | 267° |
| 2026-04-28 22:01 | 51.89641 | -7.48733 | 14596 ft | 396 kts | 267° |
| 2026-04-28 22:01 | 51.89416 | -7.53186 | 13991 ft | 398 kts | 267° |
| 2026-04-28 22:01 | 51.89187 | -7.57657 | 13334 ft | 400 kts | 267° |
| 2026-04-28 22:02 | 51.88958 | -7.62095 | 12692 ft | 400 kts | 266° |
| 2026-04-28 22:02 | 51.88727 | -7.66528 | 12040 ft | 391 kts | 266° |
| 2026-04-28 22:02 | 51.88501 | -7.70864 | 11410 ft | 383 kts | 266° |
| 2026-04-28 22:02 | 51.88277 | -7.75113 | 10791 ft | 375 kts | 266° |
| 2026-04-28 22:03 | 51.88062 | -7.79285 | 10186 ft | 369 kts | 268° |
| 2026-04-28 22:03 | 51.88347 | -7.83329 | 9484 ft | 358 kts | 291° |
| 2026-04-28 22:03 | 51.89341 | -7.86942 | 8867 ft | 348 kts | 301° |
| 2026-04-28 22:03 | 51.90468 | -7.90341 | 8492 ft | 335 kts | 302° |
| 2026-04-28 22:04 | 51.91560 | -7.93560 | 8349 ft | 317 kts | 302° |
| 2026-04-28 22:04 | 51.92600 | -7.96634 | 8338 ft | 305 kts | 302° |
| 2026-04-28 22:04 | 51.93611 | -7.99642 | 8124 ft | 301 kts | 302° |
| 2026-04-28 22:04 | 51.94600 | -8.02608 | 7959 ft | 297 kts | 302° |
| 2026-04-28 22:05 | 51.95571 | -8.05538 | 7749 ft | 292 kts | 302° |
| 2026-04-28 22:05 | 51.96509 | -8.08384 | 7561 ft | 288 kts | 302° |
| 2026-04-28 22:05 | 51.97447 | -8.11239 | 7396 ft | 286 kts | 302° |
| 2026-04-28 22:05 | 51.98379 | -8.14083 | 7231 ft | 285 kts | 302° |
| 2026-04-28 22:06 | 51.99309 | -8.16925 | 7060 ft | 285 kts | 302° |
| 2026-04-28 22:06 | 52.00236 | -8.19762 | 6877 ft | 284 kts | 301° |
| 2026-04-28 22:06 | 52.01158 | -8.22591 | 6714 ft | 283 kts | 301° |
| 2026-04-28 22:06 | 52.02078 | -8.25417 | 6526 ft | 283 kts | 301° |
| 2026-04-28 22:07 | 52.02993 | -8.28234 | 6398 ft | 282 kts | 301° |
| 2026-04-28 22:07 | 52.03923 | -8.31096 | 6353 ft | 283 kts | 300° |
| 2026-04-28 22:07 | 52.04826 | -8.33878 | 6352 ft | 283 kts | 300° |
| 2026-04-28 22:07 | 52.05742 | -8.36705 | 6338 ft | 282 kts | 301° |
| 2026-04-28 22:08 | 52.06654 | -8.39527 | 6339 ft | 281 kts | 301° |
| 2026-04-28 22:08 | 52.07395 | -8.42454 | 6292 ft | 282 kts | 279° |
| 2026-04-28 22:08 | 52.07258 | -8.45574 | 6173 ft | 275 kts | 252° |
| 2026-04-28 22:08 | 52.06620 | -8.48456 | 6075 ft | 267 kts | 247° |
| 2026-04-28 22:09 | 52.05969 | -8.51234 | 5964 ft | 261 kts | 248° |
| 2026-04-28 22:09 | 52.05329 | -8.53997 | 5700 ft | 262 kts | 248° |
| 2026-04-28 22:09 | 52.04690 | -8.56784 | 5345 ft | 266 kts | 248° |
| 2026-04-28 22:09 | 52.03875 | -8.59471 | 4949 ft | 266 kts | 225° |
| 2026-04-28 22:10 | 52.02373 | -8.60947 | 4546 ft | 248 kts | 184° |
| 2026-04-28 22:10 | 52.00757 | -8.60581 | 4164 ft | 231 kts | 146° |
| 2026-04-28 22:10 | 51.99421 | -8.59177 | 3781 ft | 229 kts | 144° |
| 2026-04-28 22:10 | 51.98030 | -8.57960 | 3344 ft | 225 kts | 150° |
| 2026-04-28 22:11 | 51.96626 | -8.56935 | 3050 ft | 215 kts | 150° |
| 2026-04-28 22:11 | 51.95317 | -8.56019 | 2985 ft | 195 kts | 150° |
| 2026-04-28 22:11 | 51.94123 | -8.55214 | 2973 ft | 179 kts | 150° |
| 2026-04-28 22:11 | 51.92959 | -8.54441 | 2726 ft | 187 kts | 152° |
| 2026-04-28 22:12 | 51.91697 | -8.53637 | 2186 ft | 201 kts | 155° |
| 2026-04-28 22:12 | 51.90372 | -8.53000 | 1948 ft | 195 kts | 156° |
| 2026-04-28 22:12 | 51.89156 | -8.52270 | 1706 ft | 181 kts | 148° |
| 2026-04-28 22:12 | 51.88020 | -8.51473 | 1430 ft | 169 kts | 152° |
| 2026-04-28 22:13 | 51.86969 | -8.50807 | 1129 ft | 158 kts | 154° |
| 2026-04-28 22:13 | 51.85962 | -8.50192 | 729 ft | 156 kts | 155° |
| 2026-04-28 22:13 | 51.84985 | -8.49627 | 508 ft | 142 kts | 154° |
| 2026-04-28 22:13 | 51.84151 | -8.49108 | 478 ft | 105 kts | 161° |
| 2026-04-28 22:14 | 51.83644 | -8.48813 | 467 ft | 58 kts | 159° |
| 2026-04-28 22:14 | 51.83508 | -8.48718 | 468 ft | 7 kts | 154° |
| 2026-04-28 22:14 | 51.83494 | -8.48731 | 469 ft | 1 kts | 275° |
| 2026-04-28 22:14 | 51.83504 | -8.48740 | 467 ft | 2 kts | 340° |
| 2026-04-28 22:15 | 51.83521 | -8.48749 | 469 ft | 5 kts | 341° |
| 2026-04-28 22:15 | 51.83570 | -8.48777 | 469 ft | 10 kts | 340° |
| 2026-04-28 22:15 | 51.83656 | -8.48828 | 465 ft | 16 kts | 341° |
| 2026-04-28 22:15 | 51.83772 | -8.48894 | 465 ft | 19 kts | 338° |
| 2026-04-28 22:16 | 51.83894 | -8.48985 | 470 ft | 19 kts | 341° |
| 2026-04-28 22:16 | 51.84019 | -8.49042 | 471 ft | 18 kts | 341° |
| 2026-04-28 22:16 | 51.84137 | -8.49107 | 477 ft | 18 kts | 326° |
| 2026-04-28 22:16 | 51.84250 | -8.49172 | 474 ft | 17 kts | 350° |
| 2026-04-28 22:17 | 51.84333 | -8.49065 | 482 ft | 16 kts | 62° |
| 2026-04-28 22:17 | 51.84390 | -8.48987 | 488 ft | 10 kts | 350° |
| 2026-04-28 22:17 | 51.84455 | -8.49019 | 486 ft | 10 kts | 342° |
| 2026-04-28 22:17 | 51.84517 | -8.49054 | 490 ft | 9 kts | 340° |
| 2026-04-28 22:18 | 51.84577 | -8.49090 | 492 ft | 9 kts | 340° |
| 2026-04-28 22:18 | 51.84636 | -8.49123 | 499 ft | 9 kts | 339° |
| 2026-04-28 22:18 | 51.84692 | -8.49161 | 502 ft | 9 kts | 341° |
| 2026-04-28 22:18 | 51.84737 | -8.49120 | 502 ft | 8 kts | 67° |
| 2026-04-28 22:19 | 51.84754 | -8.49048 | 502 ft | 3 kts | 70° |
| 2026-04-28 22:19 | 51.84757 | -8.49031 | 502 ft | 0 kts | 71° |
| 2026-04-28 22:19 | 51.84758 | -8.49029 | 502 ft | 0 kts | 71° |